sensor_id;sensor_type;location;lat;lon;timestamp;pressure;altitude;pressure_sealevel;temperature;humidity
4167;BME280;2097;51.104;7.150;2022-08-01T00:01:32;98930.56;;;19.14;100.00
4167;BME280;2097;51.104;7.150;2022-08-01T00:03:58;98919.22;;;19.14;100.00
4167;BME280;2097;51.104;7.150;2022-08-01T00:06:25;98934.06;;;19.15;100.00
4167;BME280;2097;51.104;7.150;2022-08-01T00:08:52;98933.31;;;19.13;100.00
4167;BME280;2097;51.104;7.150;2022-08-01T00:11:19;98920.03;;;19.05;100.00
4167;BME280;2097;51.104;7.150;2022-08-01T00:13:45;98904.66;;;18.91;100.00
4167;BME280;2097;51.104;7.150;2022-08-01T00:16:12;98924.16;;;18.98;100.00
4167;BME280;2097;51.104;7.150;2022-08-01T00:18:41;98930.38;;;18.97;100.00
4167;BME280;2097;51.104;7.150;2022-08-01T00:21:07;98928.03;;;18.94;100.00
4167;BME280;2097;51.104;7.150;2022-08-01T00:23:34;98930.66;;;18.94;100.00
4167;BME280;2097;51.104;7.150;2022-08-01T00:26:01;98923.78;;;18.93;100.00
4167;BME280;2097;51.104;7.150;2022-08-01T00:28:28;98929.03;;;18.93;100.00
4167;BME280;2097;51.104;7.150;2022-08-01T00:30:55;98923.88;;;18.91;100.00
4167;BME280;2097;51.104;7.150;2022-08-01T00:33:21;98919.75;;;18.89;100.00
4167;BME280;2097;51.104;7.150;2022-08-01T00:35:50;98925.28;;;18.86;100.00
4167;BME280;2097;51.104;7.150;2022-08-01T00:38:16;98923.47;;;18.86;100.00
4167;BME280;2097;51.104;7.150;2022-08-01T00:40:43;98861.00;;;18.50;100.00
4167;BME280;2097;51.104;7.150;2022-08-01T00:43:10;98920.44;;;18.91;100.00
4167;BME280;2097;51.104;7.150;2022-08-01T00:45:37;98915.28;;;18.89;100.00
4167;BME280;2097;51.104;7.150;2022-08-01T00:48:04;98769.59;;;17.96;100.00
4167;BME280;2097;51.104;7.150;2022-08-01T00:50:31;98875.69;;;18.62;100.00
4167;BME280;2097;51.104;7.150;2022-08-01T00:52:59;98919.75;;;18.89;100.00
4167;BME280;2097;51.104;7.150;2022-08-01T00:55:27;98917.50;;;18.84;100.00
4167;BME280;2097;51.104;7.150;2022-08-01T00:57:54;98920.00;;;18.86;100.00
4167;BME280;2097;51.104;7.150;2022-08-01T01:00:21;98921.94;;;18.84;100.00
4167;BME280;2097;51.104;7.150;2022-08-01T01:02:48;98918.63;;;18.82;100.00
4167;BME280;2097;51.104;7.150;2022-08-01T01:05:15;98916.97;;;18.81;100.00
4167;BME280;2097;51.104;7.150;2022-08-01T01:07:48;98921.25;;;18.82;100.00
4167;BME280;2097;51.104;7.150;2022-08-01T01:10:21;98915.28;;;18.80;100.00
4167;BME280;2097;51.104;7.150;2022-08-01T01:12:51;98795.88;;;18.05;100.00
4167;BME280;2097;51.104;7.150;2022-08-01T01:15:24;98922.75;;;18.75;100.00
4167;BME280;2097;51.104;7.150;2022-08-01T01:17:57;98919.44;;;18.73;100.00
4167;BME280;2097;51.104;7.150;2022-08-01T01:20:28;98922.22;;;18.71;100.00
4167;BME280;2097;51.104;7.150;2022-08-01T01:23:12;98914.72;;;18.67;100.00
4167;BME280;2097;51.104;7.150;2022-08-01T01:26:04;98921.78;;;18.66;100.00
4167;BME280;2097;51.104;7.150;2022-08-01T01:28:40;98919.28;;;18.65;100.00
4167;BME280;2097;51.104;7.150;2022-08-01T01:31:14;98924.69;;;18.63;100.00
4167;BME280;2097;51.104;7.150;2022-08-01T01:33:43;98918.72;;;18.61;100.00
4167;BME280;2097;51.104;7.150;2022-08-01T01:36:11;98919.53;;;18.62;100.00
4167;BME280;2097;51.104;7.150;2022-08-01T01:38:42;98916.91;;;18.62;100.00
4167;BME280;2097;51.104;7.150;2022-08-01T01:41:11;98924.78;;;18.62;100.00
4167;BME280;2097;51.104;7.150;2022-08-01T01:43:39;98931.03;;;18.61;100.00
4167;BME280;2097;51.104;7.150;2022-08-01T01:46:07;98927.84;;;18.57;100.00
4167;BME280;2097;51.104;7.150;2022-08-01T01:48:37;98935.72;;;18.57;100.00
4167;BME280;2097;51.104;7.150;2022-08-01T01:51:05;98928.66;;;18.58;100.00
4167;BME280;2097;51.104;7.150;2022-08-01T01:53:33;98925.22;;;18.57;100.00
4167;BME280;2097;51.104;7.150;2022-08-01T01:56:02;98938.34;;;18.57;100.00
4167;BME280;2097;51.104;7.150;2022-08-01T01:58:31;98924.50;;;18.55;100.00
4167;BME280;2097;51.104;7.150;2022-08-01T02:01:01;98928.09;;;18.54;100.00
4167;BME280;2097;51.104;7.150;2022-08-01T02:03:28;98872.34;;;18.21;100.00
4167;BME280;2097;51.104;7.150;2022-08-01T02:05:59;98921.44;;;18.50;100.00
4167;BME280;2097;51.104;7.150;2022-08-01T02:08:29;98763.38;;;17.57;100.00
4167;BME280;2097;51.104;7.150;2022-08-01T02:10:57;98919.94;;;18.48;100.00
4167;BME280;2097;51.104;7.150;2022-08-01T02:13:43;98925.03;;;18.49;100.00
4167;BME280;2097;51.104;7.150;2022-08-01T02:16:12;98924.22;;;18.49;100.00
4167;BME280;2097;51.104;7.150;2022-08-01T02:18:40;98915.50;;;18.48;100.00
4167;BME280;2097;51.104;7.150;2022-08-01T02:21:12;98916.34;;;18.49;100.00
4167;BME280;2097;51.104;7.150;2022-08-01T02:23:40;98918.00;;;18.50;100.00
4167;BME280;2097;51.104;7.150;2022-08-01T02:26:10;98784.72;;;17.73;100.00
4167;BME280;2097;51.104;7.150;2022-08-01T02:28:43;98917.84;;;18.51;100.00
4167;BME280;2097;51.104;7.150;2022-08-01T02:31:13;98916.34;;;18.49;100.00
4167;BME280;2097;51.104;7.150;2022-08-01T02:33:43;98916.59;;;18.46;100.00
4167;BME280;2097;51.104;7.150;2022-08-01T02:36:13;98915.22;;;18.42;100.00
4167;BME280;2097;51.104;7.150;2022-08-01T02:38:44;98917.94;;;18.40;100.00
4167;BME280;2097;51.104;7.150;2022-08-01T02:41:16;98915.22;;;18.42;100.00
4167;BME280;2097;51.104;7.150;2022-08-01T02:43:47;98914.38;;;18.41;100.00
4167;BME280;2097;51.104;7.150;2022-08-01T02:46:20;98911.88;;;18.40;100.00
4167;BME280;2097;51.104;7.150;2022-08-01T02:48:49;98912.03;;;18.38;100.00
4167;BME280;2097;51.104;7.150;2022-08-01T02:51:19;98908.56;;;18.38;100.00
4167;BME280;2097;51.104;7.150;2022-08-01T02:53:48;98818.75;;;17.84;100.00
4167;BME280;2097;51.104;7.150;2022-08-01T02:56:17;98893.31;;;18.32;100.00
4167;BME280;2097;51.104;7.150;2022-08-01T02:58:46;98902.19;;;18.40;100.00
4167;BME280;2097;51.104;7.150;2022-08-01T03:01:14;98905.50;;;18.42;100.00
4167;BME280;2097;51.104;7.150;2022-08-01T03:03:42;98904.97;;;18.39;100.00
4167;BME280;2097;51.104;7.150;2022-08-01T03:06:10;98901.38;;;18.40;100.00
4167;BME280;2097;51.104;7.150;2022-08-01T03:08:39;98906.63;;;18.40;100.00
4167;BME280;2097;51.104;7.150;2022-08-01T03:11:08;98906.34;;;18.43;100.00
4167;BME280;2097;51.104;7.150;2022-08-01T03:13:35;98902.88;;;18.42;100.00
4167;BME280;2097;51.104;7.150;2022-08-01T03:16:04;98903.84;;;18.41;100.00
4167;BME280;2097;51.104;7.150;2022-08-01T03:18:32;98909.94;;;18.42;100.00
4167;BME280;2097;51.104;7.150;2022-08-01T03:21:01;98915.91;;;18.44;100.00
4167;BME280;2097;51.104;7.150;2022-08-01T03:23:29;98827.19;;;17.88;100.00
4167;BME280;2097;51.104;7.150;2022-08-01T03:26:00;98915.91;;;18.44;100.00
4167;BME280;2097;51.104;7.150;2022-08-01T03:28:29;98915.06;;;18.43;100.00
4167;BME280;2097;51.104;7.150;2022-08-01T03:30:58;98924.75;;;18.43;100.00
4167;BME280;2097;51.104;7.150;2022-08-01T03:33:25;98922.94;;;18.43;100.00
4167;BME280;2097;51.104;7.150;2022-08-01T03:35:54;98921.28;;;18.42;100.00
4167;BME280;2097;51.104;7.150;2022-08-01T03:38:23;98922.94;;;18.43;100.00
4167;BME280;2097;51.104;7.150;2022-08-01T03:40:55;98925.84;;;18.40;100.00
4167;BME280;2097;51.104;7.150;2022-08-01T03:43:31;98924.88;;;18.41;100.00
4167;BME280;2097;51.104;7.150;2022-08-01T03:46:03;98924.06;;;18.41;100.00
4167;BME280;2097;51.104;7.150;2022-08-01T03:48:35;98922.53;;;18.38;100.00
4167;BME280;2097;51.104;7.150;2022-08-01T03:51:03;98919.91;;;18.38;100.00
4167;BME280;2097;51.104;7.150;2022-08-01T03:53:32;98932.06;;;18.39;100.00
4167;BME280;2097;51.104;7.150;2022-08-01T03:56:01;98933.16;;;18.37;100.00
4167;BME280;2097;51.104;7.150;2022-08-01T03:58:30;98929.84;;;18.35;100.00
4167;BME280;2097;51.104;7.150;2022-08-01T04:00:57;98924.47;;;18.37;100.00
4167;BME280;2097;51.104;7.150;2022-08-01T04:03:25;98929.59;;;18.38;100.00
4167;BME280;2097;51.104;7.150;2022-08-01T04:05:52;98932.75;;;18.41;100.00
4167;BME280;2097;51.104;7.150;2022-08-01T04:08:19;98934.44;;;18.42;100.00
4167;BME280;2097;51.104;7.150;2022-08-01T04:10:46;98934.31;;;18.44;100.00
4167;BME280;2097;51.104;7.150;2022-08-01T04:13:13;98926.44;;;18.44;100.00
4167;BME280;2097;51.104;7.150;2022-08-01T04:15:41;98920.47;;;18.42;100.00
4167;BME280;2097;51.104;7.150;2022-08-01T04:18:08;98930.13;;;18.41;100.00
4167;BME280;2097;51.104;7.150;2022-08-01T04:20:35;98932.50;;;18.44;100.00
4167;BME280;2097;51.104;7.150;2022-08-01T04:23:02;98921.03;;;18.45;100.00
4167;BME280;2097;51.104;7.150;2022-08-01T04:25:33;98921.03;;;18.45;100.00
4167;BME280;2097;51.104;7.150;2022-08-01T04:28:02;98917.41;;;18.37;100.00
4167;BME280;2097;51.104;7.150;2022-08-01T04:30:33;98928.09;;;18.45;100.00
4167;BME280;2097;51.104;7.150;2022-08-01T04:33:04;98923.53;;;18.47;100.00
4167;BME280;2097;51.104;7.150;2022-08-01T04:35:32;98933.78;;;18.50;100.00
4167;BME280;2097;51.104;7.150;2022-08-01T04:38:01;98901.72;;;18.26;100.00
4167;BME280;2097;51.104;7.150;2022-08-01T04:40:28;98930.19;;;18.51;100.00
4167;BME280;2097;51.104;7.150;2022-08-01T04:42:55;98935.44;;;18.51;100.00
4167;BME280;2097;51.104;7.150;2022-08-01T04:45:23;98931.00;;;18.51;100.00
4167;BME280;2097;51.104;7.150;2022-08-01T04:47:51;98945.97;;;18.51;100.00
4167;BME280;2097;51.104;7.150;2022-08-01T04:50:19;98940.69;;;18.51;100.00
4167;BME280;2097;51.104;7.150;2022-08-01T04:52:47;98941.53;;;18.51;100.00
4167;BME280;2097;51.104;7.150;2022-08-01T04:55:14;98948.19;;;18.55;100.00
4167;BME280;2097;51.104;7.150;2022-08-01T04:57:44;98957.88;;;18.55;100.00
4167;BME280;2097;51.104;7.150;2022-08-01T05:00:12;98952.72;;;18.53;100.00
4167;BME280;2097;51.104;7.150;2022-08-01T05:02:39;98957.88;;;18.55;100.00
4167;BME280;2097;51.104;7.150;2022-08-01T05:05:06;98963.41;;;18.52;100.00
4167;BME280;2097;51.104;7.150;2022-08-01T05:07:34;98965.19;;;18.51;100.00
4167;BME280;2097;51.104;7.150;2022-08-01T05:10:03;98966.72;;;18.54;100.00
4167;BME280;2097;51.104;7.150;2022-08-01T05:12:29;98966.72;;;18.54;100.00
4167;BME280;2097;51.104;7.150;2022-08-01T05:14:57;98965.06;;;18.53;100.00
4167;BME280;2097;51.104;7.150;2022-08-01T05:17:24;98963.13;;;18.55;100.00
4167;BME280;2097;51.104;7.150;2022-08-01T05:19:51;98956.63;;;18.59;100.00
4167;BME280;2097;51.104;7.150;2022-08-01T05:22:18;98963.97;;;18.65;100.00
4167;BME280;2097;51.104;7.150;2022-08-01T05:24:46;98960.09;;;18.69;100.00
4167;BME280;2097;51.104;7.150;2022-08-01T05:27:13;98962.34;;;18.73;100.00
4167;BME280;2097;51.104;7.150;2022-08-01T05:29:40;98972.03;;;18.82;100.00
4167;BME280;2097;51.104;7.150;2022-08-01T05:32:07;98969.03;;;18.87;100.00
4167;BME280;2097;51.104;7.150;2022-08-01T05:34:34;98970.41;;;18.91;100.00
4167;BME280;2097;51.104;7.150;2022-08-01T05:37:01;98972.75;;;18.94;100.00
4167;BME280;2097;51.104;7.150;2022-08-01T05:39:28;98976.50;;;19.01;100.00
4167;BME280;2097;51.104;7.150;2022-08-01T05:41:57;98975.97;;;19.07;100.00
4167;BME280;2097;51.104;7.150;2022-08-01T05:44:23;98982.13;;;19.17;100.00
4167;BME280;2097;51.104;7.150;2022-08-01T05:46:50;98984.91;;;19.25;100.00
4167;BME280;2097;51.104;7.150;2022-08-01T05:49:17;98987.25;;;19.28;100.00
4167;BME280;2097;51.104;7.150;2022-08-01T05:51:44;98980.44;;;19.16;100.00
4167;BME280;2097;51.104;7.150;2022-08-01T05:54:10;98997.63;;;19.20;100.00
4167;BME280;2097;51.104;7.150;2022-08-01T05:56:37;98995.28;;;19.17;100.00
4167;BME280;2097;51.104;7.150;2022-08-01T05:59:05;98996.94;;;19.18;100.00
4167;BME280;2097;51.104;7.150;2022-08-01T06:01:32;98999.56;;;19.18;100.00
4167;BME280;2097;51.104;7.150;2022-08-01T06:03:59;98976.28;;;19.13;100.00
4167;BME280;2097;51.104;7.150;2022-08-01T06:06:26;98988.34;;;19.35;100.00
4167;BME280;2097;51.104;7.150;2022-08-01T06:08:53;98996.53;;;19.41;100.00
4167;BME280;2097;51.104;7.150;2022-08-01T06:11:20;98992.25;;;19.50;100.00
4167;BME280;2097;51.104;7.150;2022-08-01T06:13:47;98983.78;;;19.65;100.00
4167;BME280;2097;51.104;7.150;2022-08-01T06:16:15;98984.03;;;19.81;100.00
4167;BME280;2097;51.104;7.150;2022-08-01T06:18:42;98985.00;;;19.89;100.00
4167;BME280;2097;51.104;7.150;2022-08-01T06:21:09;98979.84;;;19.88;100.00
4167;BME280;2097;51.104;7.150;2022-08-01T06:23:36;98971.28;;;19.76;100.00
4167;BME280;2097;51.104;7.150;2022-08-01T06:26:02;98990.81;;;19.83;100.00
4167;BME280;2097;51.104;7.150;2022-08-01T06:28:29;98993.88;;;19.88;100.00
4167;BME280;2097;51.104;7.150;2022-08-01T06:30:56;98992.19;;;20.06;100.00
4167;BME280;2097;51.104;7.150;2022-08-01T06:33:26;98994.50;;;20.28;100.00
4167;BME280;2097;51.104;7.150;2022-08-01T06:35:53;98989.19;;;20.38;100.00
4167;BME280;2097;51.104;7.150;2022-08-01T06:38:20;98995.53;;;20.45;100.00
4167;BME280;2097;51.104;7.150;2022-08-01T06:40:47;98999.16;;;20.44;100.00
4167;BME280;2097;51.104;7.150;2022-08-01T06:43:14;98991.88;;;20.28;100.00
4167;BME280;2097;51.104;7.150;2022-08-01T06:45:41;98997.72;;;20.22;100.00
4167;BME280;2097;51.104;7.150;2022-08-01T06:48:08;99001.34;;;20.12;100.00
4167;BME280;2097;51.104;7.150;2022-08-01T06:50:36;98995.66;;;20.07;100.00
4167;BME280;2097;51.104;7.150;2022-08-01T06:53:03;99005.91;;;20.19;100.00
4167;BME280;2097;51.104;7.150;2022-08-01T06:55:30;98997.81;;;20.30;100.00
4167;BME280;2097;51.104;7.150;2022-08-01T06:57:57;98992.47;;;20.49;100.00
4167;BME280;2097;51.104;7.150;2022-08-01T07:00:25;98977.44;;;20.59;100.00
4167;BME280;2097;51.104;7.150;2022-08-01T07:02:54;99000.09;;;20.79;100.00
4167;BME280;2097;51.104;7.150;2022-08-01T07:05:22;98995.41;;;20.82;100.00
4167;BME280;2097;51.104;7.150;2022-08-01T07:07:50;98985.16;;;20.70;100.00
4167;BME280;2097;51.104;7.150;2022-08-01T07:10:17;98912.25;;;20.15;100.00
4167;BME280;2097;51.104;7.150;2022-08-01T07:12:44;98996.72;;;20.60;100.00
4167;BME280;2097;51.104;7.150;2022-08-01T07:15:11;98998.25;;;20.62;100.00
4167;BME280;2097;51.104;7.150;2022-08-01T07:17:39;98994.06;;;20.69;100.00
4167;BME280;2097;51.104;7.150;2022-08-01T07:20:07;98996.53;;;20.70;100.00
4167;BME280;2097;51.104;7.150;2022-08-01T07:22:35;98995.31;;;20.65;100.00
4167;BME280;2097;51.104;7.150;2022-08-01T07:25:04;98877.75;;;20.09;100.00
4167;BME280;2097;51.104;7.150;2022-08-01T07:27:31;98997.41;;;20.98;100.00
4167;BME280;2097;51.104;7.150;2022-08-01T07:29:58;98996.66;;;21.23;100.00
4167;BME280;2097;51.104;7.150;2022-08-01T07:32:25;98981.41;;;21.34;100.00
4167;BME280;2097;51.104;7.150;2022-08-01T07:34:51;98996.75;;;21.48;99.84
4167;BME280;2097;51.104;7.150;2022-08-01T07:37:18;99006.81;;;21.45;99.58
4167;BME280;2097;51.104;7.150;2022-08-01T07:39:45;99003.22;;;21.54;99.40
4167;BME280;2097;51.104;7.150;2022-08-01T07:42:13;99015.88;;;21.60;98.69
4167;BME280;2097;51.104;7.150;2022-08-01T07:44:40;99004.53;;;21.67;98.38
4167;BME280;2097;51.104;7.150;2022-08-01T07:47:07;99018.66;;;21.76;97.51
4167;BME280;2097;51.104;7.150;2022-08-01T07:49:34;99006.66;;;21.81;96.84
4167;BME280;2097;51.104;7.150;2022-08-01T07:52:01;99019.41;;;21.86;96.29
4167;BME280;2097;51.104;7.150;2022-08-01T07:54:28;99016.03;;;21.76;96.11
4167;BME280;2097;51.104;7.150;2022-08-01T07:56:55;98996.25;;;21.62;96.29
4167;BME280;2097;51.104;7.150;2022-08-01T07:59:23;99022.38;;;21.65;96.42
4167;BME280;2097;51.104;7.150;2022-08-01T08:01:50;99024.34;;;21.63;96.67
4167;BME280;2097;51.104;7.150;2022-08-01T08:04:17;99015.75;;;21.52;96.79
4167;BME280;2097;51.104;7.150;2022-08-01T08:06:44;99026.44;;;21.60;96.58
4167;BME280;2097;51.104;7.150;2022-08-01T08:09:13;99029.00;;;21.69;96.22
4167;BME280;2097;51.104;7.150;2022-08-01T08:11:41;99036.19;;;21.77;95.70
4167;BME280;2097;51.104;7.150;2022-08-01T08:14:08;99026.97;;;21.81;95.13
4167;BME280;2097;51.104;7.150;2022-08-01T08:16:37;99040.69;;;22.01;94.26
4167;BME280;2097;51.104;7.150;2022-08-01T08:19:04;99044.44;;;22.16;93.62
4167;BME280;2097;51.104;7.150;2022-08-01T08:21:31;99038.88;;;22.27;92.93
4167;BME280;2097;51.104;7.150;2022-08-01T08:23:57;99034.72;;;22.42;92.32
4167;BME280;2097;51.104;7.150;2022-08-01T08:26:42;99040.75;;;22.60;91.33
4167;BME280;2097;51.104;7.150;2022-08-01T08:29:08;99034.75;;;22.76;89.98
4167;BME280;2097;51.104;7.150;2022-08-01T08:31:36;99037.97;;;22.62;90.18
4167;BME280;2097;51.104;7.150;2022-08-01T08:34:03;99039.44;;;22.56;90.35
4167;BME280;2097;51.104;7.150;2022-08-01T08:36:30;99040.09;;;22.58;90.25
4167;BME280;2097;51.104;7.150;2022-08-01T08:38:57;99042.41;;;22.53;89.77
4167;BME280;2097;51.104;7.150;2022-08-01T08:41:25;99053.13;;;22.52;89.61
4167;BME280;2097;51.104;7.150;2022-08-01T08:43:52;99038.53;;;22.48;89.52
4167;BME280;2097;51.104;7.150;2022-08-01T08:46:20;99041.47;;;22.37;89.22
4167;BME280;2097;51.104;7.150;2022-08-01T08:51:23;99056.03;;;22.41;88.64
4167;BME280;2097;51.104;7.150;2022-08-01T08:53:53;99054.97;;;22.51;88.39
4167;BME280;2097;51.104;7.150;2022-08-01T08:56:24;99002.00;;;22.43;87.73
4167;BME280;2097;51.104;7.150;2022-08-01T08:58:51;99059.47;;;22.92;86.62
4167;BME280;2097;51.104;7.150;2022-08-01T09:01:19;99056.53;;;23.03;85.49
4167;BME280;2097;51.104;7.150;2022-08-01T09:03:45;99056.91;;;23.08;84.62
4167;BME280;2097;51.104;7.150;2022-08-01T09:06:12;99065.22;;;23.13;84.29
4167;BME280;2097;51.104;7.150;2022-08-01T09:08:40;99009.81;;;22.86;83.58
4167;BME280;2097;51.104;7.150;2022-08-01T09:11:07;99059.59;;;23.16;83.20
4167;BME280;2097;51.104;7.150;2022-08-01T09:13:34;99071.59;;;23.03;83.17
4167;BME280;2097;51.104;7.150;2022-08-01T09:16:01;99067.91;;;22.96;82.80
4167;BME280;2097;51.104;7.150;2022-08-01T09:18:30;99065.41;;;22.86;82.89
4167;BME280;2097;51.104;7.150;2022-08-01T09:21:13;99071.94;;;22.74;83.38
4167;BME280;2097;51.104;7.150;2022-08-01T09:23:44;99069.16;;;22.76;82.45
4167;BME280;2097;51.104;7.150;2022-08-01T09:26:13;99037.31;;;22.60;82.11
4167;BME280;2097;51.104;7.150;2022-08-01T09:28:40;99080.84;;;22.99;81.75
4167;BME280;2097;51.104;7.150;2022-08-01T09:31:08;99082.41;;;23.09;80.87
4167;BME280;2097;51.104;7.150;2022-08-01T09:33:49;99077.81;;;23.19;79.96
4167;BME280;2097;51.104;7.150;2022-08-01T09:36:16;99075.66;;;23.22;79.52
4167;BME280;2097;51.104;7.150;2022-08-01T09:38:44;99076.16;;;23.18;79.19
4167;BME280;2097;51.104;7.150;2022-08-01T09:41:11;99076.81;;;23.20;79.17
4167;BME280;2097;51.104;7.150;2022-08-01T09:43:38;99069.38;;;23.23;78.54
4167;BME280;2097;51.104;7.150;2022-08-01T09:46:09;99074.69;;;23.23;77.96
4167;BME280;2097;51.104;7.150;2022-08-01T09:48:37;99067.69;;;23.14;77.75
4167;BME280;2097;51.104;7.150;2022-08-01T09:51:05;99070.50;;;23.13;77.96
4167;BME280;2097;51.104;7.150;2022-08-01T09:53:47;99071.19;;;23.15;77.96
4167;BME280;2097;51.104;7.150;2022-08-01T09:56:14;99077.81;;;23.19;77.99
4167;BME280;2097;51.104;7.150;2022-08-01T09:58:55;99005.16;;;22.80;77.13
4167;BME280;2097;51.104;7.150;2022-08-01T10:01:23;99078.69;;;23.35;76.75
4167;BME280;2097;51.104;7.150;2022-08-01T10:04:07;99085.88;;;23.51;75.62
4167;BME280;2097;51.104;7.150;2022-08-01T10:06:35;99072.59;;;23.51;75.32
4167;BME280;2097;51.104;7.150;2022-08-01T10:09:03;98960.00;;;22.90;74.80
4167;BME280;2097;51.104;7.150;2022-08-01T10:11:31;99013.28;;;23.44;74.41
4167;BME280;2097;51.104;7.150;2022-08-01T10:13:59;99027.75;;;23.73;73.77
4167;BME280;2097;51.104;7.150;2022-08-01T10:16:28;99072.03;;;24.21;72.51
4167;BME280;2097;51.104;7.150;2022-08-01T10:18:56;99078.34;;;24.35;72.95
4167;BME280;2097;51.104;7.150;2022-08-01T10:21:23;99076.31;;;24.61;71.70
4167;BME280;2097;51.104;7.150;2022-08-01T10:23:54;99074.97;;;24.73;70.89
4167;BME280;2097;51.104;7.150;2022-08-01T10:26:26;99063.66;;;24.79;70.74
4167;BME280;2097;51.104;7.150;2022-08-01T10:28:55;99059.97;;;24.88;70.69
4167;BME280;2097;51.104;7.150;2022-08-01T10:31:22;99006.66;;;24.51;69.95
4167;BME280;2097;51.104;7.150;2022-08-01T10:33:50;99062.59;;;24.96;69.21
4167;BME280;2097;51.104;7.150;2022-08-01T10:36:19;99063.13;;;24.92;68.92
4167;BME280;2097;51.104;7.150;2022-08-01T10:38:46;98969.34;;;24.37;69.34
4167;BME280;2097;51.104;7.150;2022-08-01T10:41:14;99072.56;;;24.94;68.60
4167;BME280;2097;51.104;7.150;2022-08-01T10:43:43;99073.59;;;24.85;69.49
4167;BME280;2097;51.104;7.150;2022-08-01T10:46:10;99068.16;;;24.71;68.97
4167;BME280;2097;51.104;7.150;2022-08-01T10:48:43;99074.34;;;24.55;69.29
4167;BME280;2097;51.104;7.150;2022-08-01T10:51:11;99053.63;;;24.51;69.05
4167;BME280;2097;51.104;7.150;2022-08-01T10:53:45;99070.50;;;24.66;68.67
4167;BME280;2097;51.104;7.150;2022-08-01T10:56:12;99058.63;;;24.92;67.90
4167;BME280;2097;51.104;7.150;2022-08-01T10:58:43;99053.28;;;25.39;67.54
4167;BME280;2097;51.104;7.150;2022-08-01T11:01:19;99058.25;;;25.72;65.73
4167;BME280;2097;51.104;7.150;2022-08-01T11:04:07;99056.13;;;25.90;64.96
4167;BME280;2097;51.104;7.150;2022-08-01T11:06:43;99060.38;;;26.21;63.32
4167;BME280;2097;51.104;7.150;2022-08-01T11:09:22;99060.91;;;26.17;63.31
4167;BME280;2097;51.104;7.150;2022-08-01T11:11:58;99067.03;;;25.72;64.19
4167;BME280;2097;51.104;7.150;2022-08-01T11:14:28;99058.91;;;25.44;65.30
4167;BME280;2097;51.104;7.150;2022-08-01T11:16:55;99062.75;;;25.41;65.67
4167;BME280;2097;51.104;7.150;2022-08-01T11:19:22;99065.56;;;25.70;64.41
4167;BME280;2097;51.104;7.150;2022-08-01T11:21:59;99039.97;;;25.69;63.54
4167;BME280;2097;51.104;7.150;2022-08-01T11:24:54;99057.78;;;25.91;63.31
4167;BME280;2097;51.104;7.150;2022-08-01T11:27:25;99050.97;;;26.11;62.71
4167;BME280;2097;51.104;7.150;2022-08-01T11:30:25;99045.72;;;26.40;62.21
4167;BME280;2097;51.104;7.150;2022-08-01T11:32:54;99045.59;;;26.56;60.90
4167;BME280;2097;51.104;7.150;2022-08-01T11:35:22;99054.06;;;26.37;61.33
4167;BME280;2097;51.104;7.150;2022-08-01T11:37:52;99044.81;;;26.10;61.44
4167;BME280;2097;51.104;7.150;2022-08-01T11:40:22;99052.56;;;25.75;62.47
4167;BME280;2097;51.104;7.150;2022-08-01T11:45:48;99045.44;;;25.67;62.20
4167;BME280;2097;51.104;7.150;2022-08-01T11:48:18;99053.72;;;26.03;61.99
4167;BME280;2097;51.104;7.150;2022-08-01T11:50:45;99044.66;;;26.49;60.41
4167;BME280;2097;51.104;7.150;2022-08-01T11:53:12;99049.16;;;26.63;59.55
4167;BME280;2097;51.104;7.150;2022-08-01T11:55:45;99049.91;;;26.57;59.02
4167;BME280;2097;51.104;7.150;2022-08-01T11:58:14;99051.50;;;26.43;59.11
4167;BME280;2097;51.104;7.150;2022-08-01T12:00:41;99051.72;;;26.19;59.69
4167;BME280;2097;51.104;7.150;2022-08-01T12:03:10;99051.19;;;26.24;58.95
4167;BME280;2097;51.104;7.150;2022-08-01T12:05:37;99042.06;;;26.04;59.31
4167;BME280;2097;51.104;7.150;2022-08-01T12:08:04;99045.13;;;25.93;59.55
4167;BME280;2097;51.104;7.150;2022-08-01T12:10:33;99042.34;;;26.09;59.03
4167;BME280;2097;51.104;7.150;2022-08-01T12:13:05;99044.69;;;26.41;58.70
4167;BME280;2097;51.104;7.150;2022-08-01T12:15:34;99029.88;;;26.61;57.96
4167;BME280;2097;51.104;7.150;2022-08-01T12:18:01;99045.47;;;26.49;58.07
4167;BME280;2097;51.104;7.150;2022-08-01T12:20:32;99046.69;;;26.24;58.73
4167;BME280;2097;51.104;7.150;2022-08-01T12:23:00;99040.63;;;26.16;58.74
4167;BME280;2097;51.104;7.150;2022-08-01T12:25:27;99051.19;;;26.24;58.77
4167;BME280;2097;51.104;7.150;2022-08-01T12:27:59;99034.00;;;26.12;58.30
4167;BME280;2097;51.104;7.150;2022-08-01T12:30:27;99054.25;;;26.35;58.21
4167;BME280;2097;51.104;7.150;2022-08-01T12:32:56;99063.31;;;26.26;58.33
4167;BME280;2097;51.104;7.150;2022-08-01T12:35:25;99068.31;;;26.07;58.37
4167;BME280;2097;51.104;7.150;2022-08-01T12:37:55;99071.03;;;25.99;58.37
4167;BME280;2097;51.104;7.150;2022-08-01T12:40:24;99069.78;;;25.87;58.61
4167;BME280;2097;51.104;7.150;2022-08-01T12:42:52;99064.34;;;25.80;58.99
4167;BME280;2097;51.104;7.150;2022-08-01T12:45:22;99057.25;;;25.73;59.30
4167;BME280;2097;51.104;7.150;2022-08-01T12:47:51;99062.66;;;25.79;58.32
4167;BME280;2097;51.104;7.150;2022-08-01T12:50:20;99061.25;;;25.69;58.95
4167;BME280;2097;51.104;7.150;2022-08-01T12:52:47;99056.31;;;25.58;58.43
4167;BME280;2097;51.104;7.150;2022-08-01T12:55:16;99059.03;;;25.50;57.67
4167;BME280;2097;51.104;7.150;2022-08-01T12:57:45;99052.78;;;25.43;57.30
4167;BME280;2097;51.104;7.150;2022-08-01T13:00:18;99051.84;;;25.58;57.21
4167;BME280;2097;51.104;7.150;2022-08-01T13:02:46;99045.13;;;25.93;56.54
4167;BME280;2097;51.104;7.150;2022-08-01T13:15:37;99046.50;;;26.77;52.88
4167;BME280;2097;51.104;7.150;2022-08-01T13:20:40;99045.94;;;26.96;53.39
4167;BME280;2097;51.104;7.150;2022-08-01T13:23:16;99049.91;;;26.85;53.71
4167;BME280;2097;51.104;7.150;2022-08-01T13:25:47;99053.31;;;26.94;54.09
4167;BME280;2097;51.104;7.150;2022-08-01T13:28:14;99051.03;;;27.05;53.89
4167;BME280;2097;51.104;7.150;2022-08-01T13:30:55;99048.50;;;27.33;53.45
4167;BME280;2097;51.104;7.150;2022-08-01T13:33:22;99039.25;;;27.50;53.24
4167;BME280;2097;51.104;7.150;2022-08-01T13:35:50;99053.00;;;27.32;53.55
4167;BME280;2097;51.104;7.150;2022-08-01T13:38:17;99053.59;;;27.13;54.15
4167;BME280;2097;51.104;7.150;2022-08-01T13:40:44;99050.56;;;27.16;53.76
4167;BME280;2097;51.104;7.150;2022-08-01T13:43:10;99048.25;;;27.13;53.74